sensor_id;sensor_type;location;lat;lon;timestamp;temperature;humidity
16485;DHT22;8353;47.856;12.344;2023-12-14T00:02:11;8.50;99.90
16485;DHT22;8353;47.856;12.344;2023-12-14T00:04:58;8.50;99.90
16485;DHT22;8353;47.856;12.344;2023-12-14T00:07:45;8.40;99.90
16485;DHT22;8353;47.856;12.344;2023-12-14T00:10:33;8.30;99.90
16485;DHT22;8353;47.856;12.344;2023-12-14T00:13:20;8.30;99.90
16485;DHT22;8353;47.856;12.344;2023-12-14T00:16:10;8.30;99.90
16485;DHT22;8353;47.856;12.344;2023-12-14T00:18:57;8.20;99.90
16485;DHT22;8353;47.856;12.344;2023-12-14T00:21:43;8.30;99.90
16485;DHT22;8353;47.856;12.344;2023-12-14T00:24:30;8.20;99.90
16485;DHT22;8353;47.856;12.344;2023-12-14T00:27:18;8.30;99.90
16485;DHT22;8353;47.856;12.344;2023-12-14T00:30:06;8.30;99.90
16485;DHT22;8353;47.856;12.344;2023-12-14T00:32:53;8.30;99.90
16485;DHT22;8353;47.856;12.344;2023-12-14T00:35:40;8.30;99.90
16485;DHT22;8353;47.856;12.344;2023-12-14T00:38:26;8.30;99.90
16485;DHT22;8353;47.856;12.344;2023-12-14T00:41:13;8.30;99.90
16485;DHT22;8353;47.856;12.344;2023-12-14T00:44:01;8.30;99.90
16485;DHT22;8353;47.856;12.344;2023-12-14T00:46:48;8.30;99.90
16485;DHT22;8353;47.856;12.344;2023-12-14T00:49:34;8.30;99.90
16485;DHT22;8353;47.856;12.344;2023-12-14T00:52:21;8.40;99.90
16485;DHT22;8353;47.856;12.344;2023-12-14T00:55:08;8.40;99.90
16485;DHT22;8353;47.856;12.344;2023-12-14T00:57:54;8.40;99.90
16485;DHT22;8353;47.856;12.344;2023-12-14T01:00:42;8.40;99.90
16485;DHT22;8353;47.856;12.344;2023-12-14T01:03:29;8.30;99.90
16485;DHT22;8353;47.856;12.344;2023-12-14T01:06:16;8.30;99.90
16485;DHT22;8353;47.856;12.344;2023-12-14T01:09:03;8.30;99.90
16485;DHT22;8353;47.856;12.344;2023-12-14T01:11:50;8.30;99.90
16485;DHT22;8353;47.856;12.344;2023-12-14T01:14:37;8.30;99.90
16485;DHT22;8353;47.856;12.344;2023-12-14T01:17:25;8.20;99.90
16485;DHT22;8353;47.856;12.344;2023-12-14T01:20:13;8.20;99.90
16485;DHT22;8353;47.856;12.344;2023-12-14T01:22:59;8.20;99.90
16485;DHT22;8353;47.856;12.344;2023-12-14T01:25:46;8.20;99.90
16485;DHT22;8353;47.856;12.344;2023-12-14T01:28:33;8.30;99.90
16485;DHT22;8353;47.856;12.344;2023-12-14T01:31:20;8.30;99.90
16485;DHT22;8353;47.856;12.344;2023-12-14T01:34:10;8.30;99.90
16485;DHT22;8353;47.856;12.344;2023-12-14T01:36:57;8.20;99.90
16485;DHT22;8353;47.856;12.344;2023-12-14T01:39:44;8.20;99.90
16485;DHT22;8353;47.856;12.344;2023-12-14T01:42:31;8.30;99.90
16485;DHT22;8353;47.856;12.344;2023-12-14T01:45:18;8.30;99.90
16485;DHT22;8353;47.856;12.344;2023-12-14T01:48:05;8.30;99.90
16485;DHT22;8353;47.856;12.344;2023-12-14T01:50:53;8.30;99.90
16485;DHT22;8353;47.856;12.344;2023-12-14T01:53:41;8.30;99.90
16485;DHT22;8353;47.856;12.344;2023-12-14T01:56:27;8.20;99.90
16485;DHT22;8353;47.856;12.344;2023-12-14T01:59:14;8.20;99.90
16485;DHT22;8353;47.856;12.344;2023-12-14T02:02:01;8.10;99.90
16485;DHT22;8353;47.856;12.344;2023-12-14T02:08:38;8.10;99.90
16485;DHT22;8353;47.856;12.344;2023-12-14T02:11:25;8.20;99.90
16485;DHT22;8353;47.856;12.344;2023-12-14T02:14:12;8.20;99.90
16485;DHT22;8353;47.856;12.344;2023-12-14T02:16:59;8.30;99.90
16485;DHT22;8353;47.856;12.344;2023-12-14T02:19:46;8.20;99.90
16485;DHT22;8353;47.856;12.344;2023-12-14T02:22:47;8.10;99.90
16485;DHT22;8353;47.856;12.344;2023-12-14T02:25:34;8.10;99.90
16485;DHT22;8353;47.856;12.344;2023-12-14T02:28:21;8.20;99.90
16485;DHT22;8353;47.856;12.344;2023-12-14T02:31:07;8.10;99.90
16485;DHT22;8353;47.856;12.344;2023-12-14T02:33:54;8.00;99.90
16485;DHT22;8353;47.856;12.344;2023-12-14T02:36:41;8.00;99.90
16485;DHT22;8353;47.856;12.344;2023-12-14T02:39:29;8.00;99.90
16485;DHT22;8353;47.856;12.344;2023-12-14T02:42:16;8.00;99.90
16485;DHT22;8353;47.856;12.344;2023-12-14T02:45:03;8.00;99.90
16485;DHT22;8353;47.856;12.344;2023-12-14T02:47:50;8.00;99.90
16485;DHT22;8353;47.856;12.344;2023-12-14T02:50:39;8.00;99.90
16485;DHT22;8353;47.856;12.344;2023-12-14T02:53:26;7.90;99.90
16485;DHT22;8353;47.856;12.344;2023-12-14T02:56:14;7.90;99.90
16485;DHT22;8353;47.856;12.344;2023-12-14T02:59:01;7.90;99.90
16485;DHT22;8353;47.856;12.344;2023-12-14T03:01:48;7.90;99.90
16485;DHT22;8353;47.856;12.344;2023-12-14T03:04:34;8.00;99.90
16485;DHT22;8353;47.856;12.344;2023-12-14T03:07:23;8.00;99.90
16485;DHT22;8353;47.856;12.344;2023-12-14T03:10:10;8.00;99.90
16485;DHT22;8353;47.856;12.344;2023-12-14T03:12:58;8.00;99.90
16485;DHT22;8353;47.856;12.344;2023-12-14T03:15:45;8.00;99.90
16485;DHT22;8353;47.856;12.344;2023-12-14T03:18:34;8.20;99.90
16485;DHT22;8353;47.856;12.344;2023-12-14T03:21:21;8.20;99.90
16485;DHT22;8353;47.856;12.344;2023-12-14T03:24:08;8.30;99.90
16485;DHT22;8353;47.856;12.344;2023-12-14T03:26:54;8.30;99.90
16485;DHT22;8353;47.856;12.344;2023-12-14T03:29:42;8.30;99.90
16485;DHT22;8353;47.856;12.344;2023-12-14T03:32:29;8.30;99.90
16485;DHT22;8353;47.856;12.344;2023-12-14T03:35:16;8.30;99.90
16485;DHT22;8353;47.856;12.344;2023-12-14T03:38:03;8.30;99.90
16485;DHT22;8353;47.856;12.344;2023-12-14T03:40:49;8.40;99.90
16485;DHT22;8353;47.856;12.344;2023-12-14T03:43:36;8.40;99.90
16485;DHT22;8353;47.856;12.344;2023-12-14T03:46:24;8.40;99.90
16485;DHT22;8353;47.856;12.344;2023-12-14T03:49:11;8.40;99.90
16485;DHT22;8353;47.856;12.344;2023-12-14T03:51:58;8.40;99.90
16485;DHT22;8353;47.856;12.344;2023-12-14T03:54:44;8.40;99.90
16485;DHT22;8353;47.856;12.344;2023-12-14T03:57:31;8.40;99.90
16485;DHT22;8353;47.856;12.344;2023-12-14T04:00:18;8.30;99.90
16485;DHT22;8353;47.856;12.344;2023-12-14T04:03:06;8.20;99.90
16485;DHT22;8353;47.856;12.344;2023-12-14T04:05:53;8.10;99.90
16485;DHT22;8353;47.856;12.344;2023-12-14T04:08:40;8.00;99.90
16485;DHT22;8353;47.856;12.344;2023-12-14T04:11:27;8.00;99.90
16485;DHT22;8353;47.856;12.344;2023-12-14T04:14:13;8.00;99.90
16485;DHT22;8353;47.856;12.344;2023-12-14T04:17:00;8.00;99.90
16485;DHT22;8353;47.856;12.344;2023-12-14T04:19:48;8.00;99.90
16485;DHT22;8353;47.856;12.344;2023-12-14T04:22:35;8.10;99.90
16485;DHT22;8353;47.856;12.344;2023-12-14T04:25:22;8.00;99.90
16485;DHT22;8353;47.856;12.344;2023-12-14T04:28:08;8.00;99.90
16485;DHT22;8353;47.856;12.344;2023-12-14T04:30:55;7.90;99.90
16485;DHT22;8353;47.856;12.344;2023-12-14T04:33:42;8.00;99.90
16485;DHT22;8353;47.856;12.344;2023-12-14T04:36:30;8.00;99.90
16485;DHT22;8353;47.856;12.344;2023-12-14T04:39:17;8.00;99.90
16485;DHT22;8353;47.856;12.344;2023-12-14T04:42:04;8.10;99.90
16485;DHT22;8353;47.856;12.344;2023-12-14T04:44:51;8.00;99.90
16485;DHT22;8353;47.856;12.344;2023-12-14T04:47:37;8.00;99.90
16485;DHT22;8353;47.856;12.344;2023-12-14T04:50:24;8.00;99.90
16485;DHT22;8353;47.856;12.344;2023-12-14T04:53:14;7.90;99.90
16485;DHT22;8353;47.856;12.344;2023-12-14T04:56:01;7.90;99.90
16485;DHT22;8353;47.856;12.344;2023-12-14T04:58:47;7.80;99.90
16485;DHT22;8353;47.856;12.344;2023-12-14T05:01:34;7.80;99.90
16485;DHT22;8353;47.856;12.344;2023-12-14T05:04:21;7.80;99.90
16485;DHT22;8353;47.856;12.344;2023-12-14T05:07:08;7.80;99.90
16485;DHT22;8353;47.856;12.344;2023-12-14T05:09:56;7.70;99.90
16485;DHT22;8353;47.856;12.344;2023-12-14T05:12:43;7.70;99.90
16485;DHT22;8353;47.856;12.344;2023-12-14T05:15:29;7.60;99.90
16485;DHT22;8353;47.856;12.344;2023-12-14T05:18:17;7.60;99.90
16485;DHT22;8353;47.856;12.344;2023-12-14T05:21:04;7.60;99.90
16485;DHT22;8353;47.856;12.344;2023-12-14T05:23:51;7.70;99.90
16485;DHT22;8353;47.856;12.344;2023-12-14T05:26:40;7.60;99.90
16485;DHT22;8353;47.856;12.344;2023-12-14T05:29:27;7.60;99.90
16485;DHT22;8353;47.856;12.344;2023-12-14T05:32:13;7.60;99.90
16485;DHT22;8353;47.856;12.344;2023-12-14T05:35:00;7.70;99.90
16485;DHT22;8353;47.856;12.344;2023-12-14T05:37:47;7.80;99.90
16485;DHT22;8353;47.856;12.344;2023-12-14T05:40:34;7.70;99.90
16485;DHT22;8353;47.856;12.344;2023-12-14T05:43:22;7.70;99.90
16485;DHT22;8353;47.856;12.344;2023-12-14T05:46:09;7.70;99.90
16485;DHT22;8353;47.856;12.344;2023-12-14T05:48:55;7.70;99.90
16485;DHT22;8353;47.856;12.344;2023-12-14T05:51:42;7.60;99.90
16485;DHT22;8353;47.856;12.344;2023-12-14T05:54:29;7.60;99.90
16485;DHT22;8353;47.856;12.344;2023-12-14T05:57:16;7.70;99.90
16485;DHT22;8353;47.856;12.344;2023-12-14T06:00:13;7.80;99.90
16485;DHT22;8353;47.856;12.344;2023-12-14T06:03:01;7.90;99.90
16485;DHT22;8353;47.856;12.344;2023-12-14T06:05:48;7.70;99.90
16485;DHT22;8353;47.856;12.344;2023-12-14T06:08:35;7.60;99.90
16485;DHT22;8353;47.856;12.344;2023-12-14T06:11:22;7.60;99.90
16485;DHT22;8353;47.856;12.344;2023-12-14T06:14:08;7.70;99.90
16485;DHT22;8353;47.856;12.344;2023-12-14T06:16:57;7.80;99.90
16485;DHT22;8353;47.856;12.344;2023-12-14T06:19:44;7.80;99.90
16485;DHT22;8353;47.856;12.344;2023-12-14T06:22:31;7.80;99.90
16485;DHT22;8353;47.856;12.344;2023-12-14T06:25:18;7.70;99.90
16485;DHT22;8353;47.856;12.344;2023-12-14T06:28:04;7.70;99.90
16485;DHT22;8353;47.856;12.344;2023-12-14T06:30:51;7.80;99.90
16485;DHT22;8353;47.856;12.344;2023-12-14T06:33:39;7.80;99.90
16485;DHT22;8353;47.856;12.344;2023-12-14T06:36:26;7.80;99.90
16485;DHT22;8353;47.856;12.344;2023-12-14T06:39:15;7.70;99.90
16485;DHT22;8353;47.856;12.344;2023-12-14T06:42:02;7.60;99.90
16485;DHT22;8353;47.856;12.344;2023-12-14T06:44:49;7.60;99.90
16485;DHT22;8353;47.856;12.344;2023-12-14T06:47:36;7.50;99.90
16485;DHT22;8353;47.856;12.344;2023-12-14T06:50:24;7.50;99.90
16485;DHT22;8353;47.856;12.344;2023-12-14T06:53:10;7.60;99.90
16485;DHT22;8353;47.856;12.344;2023-12-14T06:55:57;7.60;99.90
16485;DHT22;8353;47.856;12.344;2023-12-14T06:58:44;7.80;99.90
16485;DHT22;8353;47.856;12.344;2023-12-14T07:01:34;7.80;99.90
16485;DHT22;8353;47.856;12.344;2023-12-14T07:04:21;7.70;99.90
16485;DHT22;8353;47.856;12.344;2023-12-14T07:07:09;7.60;99.90
16485;DHT22;8353;47.856;12.344;2023-12-14T07:09:58;7.40;99.90
16485;DHT22;8353;47.856;12.344;2023-12-14T07:12:45;7.40;99.90
16485;DHT22;8353;47.856;12.344;2023-12-14T07:15:32;7.40;99.90
16485;DHT22;8353;47.856;12.344;2023-12-14T07:18:19;7.50;99.90
16485;DHT22;8353;47.856;12.344;2023-12-14T07:21:06;7.40;99.90
16485;DHT22;8353;47.856;12.344;2023-12-14T07:23:54;7.50;99.90
16485;DHT22;8353;47.856;12.344;2023-12-14T07:26:41;7.50;99.90
16485;DHT22;8353;47.856;12.344;2023-12-14T07:29:28;7.50;99.90
16485;DHT22;8353;47.856;12.344;2023-12-14T07:32:15;7.50;99.90
16485;DHT22;8353;47.856;12.344;2023-12-14T07:35:01;7.60;99.90
16485;DHT22;8353;47.856;12.344;2023-12-14T07:37:48;7.60;99.90
16485;DHT22;8353;47.856;12.344;2023-12-14T07:40:36;7.70;99.90
16485;DHT22;8353;47.856;12.344;2023-12-14T07:43:24;7.60;99.90
16485;DHT22;8353;47.856;12.344;2023-12-14T07:46:11;7.70;99.90
16485;DHT22;8353;47.856;12.344;2023-12-14T07:48:58;7.70;99.90
16485;DHT22;8353;47.856;12.344;2023-12-14T07:51:45;7.70;99.90
16485;DHT22;8353;47.856;12.344;2023-12-14T07:54:32;7.70;99.90
16485;DHT22;8353;47.856;12.344;2023-12-14T07:57:20;7.70;99.90
16485;DHT22;8353;47.856;12.344;2023-12-14T08:00:08;7.70;99.90
16485;DHT22;8353;47.856;12.344;2023-12-14T08:02:55;7.80;99.90
16485;DHT22;8353;47.856;12.344;2023-12-14T08:05:44;7.80;99.90
16485;DHT22;8353;47.856;12.344;2023-12-14T08:08:31;7.80;99.90
16485;DHT22;8353;47.856;12.344;2023-12-14T08:11:18;7.70;99.90
16485;DHT22;8353;47.856;12.344;2023-12-14T08:14:06;7.70;99.90
16485;DHT22;8353;47.856;12.344;2023-12-14T08:16:53;7.60;99.90
16485;DHT22;8353;47.856;12.344;2023-12-14T08:19:39;7.60;99.90
16485;DHT22;8353;47.856;12.344;2023-12-14T08:22:26;7.70;99.90
16485;DHT22;8353;47.856;12.344;2023-12-14T08:25:14;7.70;99.90
16485;DHT22;8353;47.856;12.344;2023-12-14T08:28:01;7.70;99.90
16485;DHT22;8353;47.856;12.344;2023-12-14T08:30:50;7.70;99.90
16485;DHT22;8353;47.856;12.344;2023-12-14T08:33:36;7.70;99.90
16485;DHT22;8353;47.856;12.344;2023-12-14T08:36:24;7.60;99.90
16485;DHT22;8353;47.856;12.344;2023-12-14T08:39:11;7.70;99.90
16485;DHT22;8353;47.856;12.344;2023-12-14T08:41:57;7.80;99.90
16485;DHT22;8353;47.856;12.344;2023-12-14T08:44:44;7.80;99.90
16485;DHT22;8353;47.856;12.344;2023-12-14T08:47:32;7.80;99.90
16485;DHT22;8353;47.856;12.344;2023-12-14T08:50:19;7.90;99.90
16485;DHT22;8353;47.856;12.344;2023-12-14T08:53:06;8.00;99.90
16485;DHT22;8353;47.856;12.344;2023-12-14T08:55:54;8.00;99.90
16485;DHT22;8353;47.856;12.344;2023-12-14T08:58:41;8.00;99.90
16485;DHT22;8353;47.856;12.344;2023-12-14T09:01:27;8.00;99.90
16485;DHT22;8353;47.856;12.344;2023-12-14T09:04:15;8.00;99.90
16485;DHT22;8353;47.856;12.344;2023-12-14T09:07:02;8.00;99.90
16485;DHT22;8353;47.856;12.344;2023-12-14T09:09:50;8.00;99.90
16485;DHT22;8353;47.856;12.344;2023-12-14T09:12:37;8.00;99.90
16485;DHT22;8353;47.856;12.344;2023-12-14T09:15:24;8.10;99.90
16485;DHT22;8353;47.856;12.344;2023-12-14T09:18:10;8.20;99.90
16485;DHT22;8353;47.856;12.344;2023-12-14T09:20:58;8.20;99.90
16485;DHT22;8353;47.856;12.344;2023-12-14T09:23:45;8.30;99.90
16485;DHT22;8353;47.856;12.344;2023-12-14T09:26:32;8.30;99.90
16485;DHT22;8353;47.856;12.344;2023-12-14T09:29:19;8.30;99.90
16485;DHT22;8353;47.856;12.344;2023-12-14T09:32:08;8.40;99.90
16485;DHT22;8353;47.856;12.344;2023-12-14T09:34:54;8.40;99.90
16485;DHT22;8353;47.856;12.344;2023-12-14T09:37:43;8.50;99.90
16485;DHT22;8353;47.856;12.344;2023-12-14T09:40:30;8.50;99.90
16485;DHT22;8353;47.856;12.344;2023-12-14T09:43:17;8.50;99.90
16485;DHT22;8353;47.856;12.344;2023-12-14T09:46:04;8.50;99.90
16485;DHT22;8353;47.856;12.344;2023-12-14T09:48:52;8.40;99.90
16485;DHT22;8353;47.856;12.344;2023-12-14T09:51:41;8.50;99.90
16485;DHT22;8353;47.856;12.344;2023-12-14T09:54:29;8.60;99.90
16485;DHT22;8353;47.856;12.344;2023-12-14T09:57:18;8.60;99.90
16485;DHT22;8353;47.856;12.344;2023-12-14T10:00:06;8.60;99.90
16485;DHT22;8353;47.856;12.344;2023-12-14T10:02:56;8.60;99.90
16485;DHT22;8353;47.856;12.344;2023-12-14T10:05:46;8.50;99.90
16485;DHT22;8353;47.856;12.344;2023-12-14T10:08:34;8.60;99.90
16485;DHT22;8353;47.856;12.344;2023-12-14T10:11:22;8.60;99.90
16485;DHT22;8353;47.856;12.344;2023-12-14T10:14:18;8.50;99.90
16485;DHT22;8353;47.856;12.344;2023-12-14T10:17:17;8.60;99.90
16485;DHT22;8353;47.856;12.344;2023-12-14T10:20:04;8.50;99.90
16485;DHT22;8353;47.856;12.344;2023-12-14T10:22:54;8.50;99.90
16485;DHT22;8353;47.856;12.344;2023-12-14T10:25:43;8.50;99.90
16485;DHT22;8353;47.856;12.344;2023-12-14T10:28:31;8.70;99.90
16485;DHT22;8353;47.856;12.344;2023-12-14T10:31:18;8.70;99.90
16485;DHT22;8353;47.856;12.344;2023-12-14T10:34:05;8.70;99.90
16485;DHT22;8353;47.856;12.344;2023-12-14T10:36:52;8.70;99.90
16485;DHT22;8353;47.856;12.344;2023-12-14T10:39:42;8.80;99.90
16485;DHT22;8353;47.856;12.344;2023-12-14T10:42:29;8.80;99.90
16485;DHT22;8353;47.856;12.344;2023-12-14T10:45:18;8.70;99.90
16485;DHT22;8353;47.856;12.344;2023-12-14T10:48:06;8.70;99.90
16485;DHT22;8353;47.856;12.344;2023-12-14T10:50:55;8.80;99.90
16485;DHT22;8353;47.856;12.344;2023-12-14T10:53:44;8.80;99.90
16485;DHT22;8353;47.856;12.344;2023-12-14T10:56:32;8.80;99.90
16485;DHT22;8353;47.856;12.344;2023-12-14T10:59:19;8.80;99.90
16485;DHT22;8353;47.856;12.344;2023-12-14T11:02:11;8.80;99.90
16485;DHT22;8353;47.856;12.344;2023-12-14T11:05:00;8.80;99.90
16485;DHT22;8353;47.856;12.344;2023-12-14T11:07:53;8.90;99.90
16485;DHT22;8353;47.856;12.344;2023-12-14T11:10:41;8.80;99.90
16485;DHT22;8353;47.856;12.344;2023-12-14T11:13:31;8.80;99.90
16485;DHT22;8353;47.856;12.344;2023-12-14T11:16:20;9.00;99.90
16485;DHT22;8353;47.856;12.344;2023-12-14T11:19:29;9.00;99.90
16485;DHT22;8353;47.856;12.344;2023-12-14T11:22:24;9.10;99.90
16485;DHT22;8353;47.856;12.344;2023-12-14T11:25:12;9.00;99.90
16485;DHT22;8353;47.856;12.344;2023-12-14T11:28:03;9.10;99.90
16485;DHT22;8353;47.856;12.344;2023-12-14T11:30:50;9.00;99.90
16485;DHT22;8353;47.856;12.344;2023-12-14T11:33:36;9.00;99.90
16485;DHT22;8353;47.856;12.344;2023-12-14T11:36:25;8.90;99.90
16485;DHT22;8353;47.856;12.344;2023-12-14T11:39:12;8.80;99.90
16485;DHT22;8353;47.856;12.344;2023-12-14T11:42:01;8.80;99.90
16485;DHT22;8353;47.856;12.344;2023-12-14T11:44:48;8.80;99.90
16485;DHT22;8353;47.856;12.344;2023-12-14T11:47:35;8.80;99.90
16485;DHT22;8353;47.856;12.344;2023-12-14T11:50:22;8.80;99.90
16485;DHT22;8353;47.856;12.344;2023-12-14T11:53:10;8.70;99.90
16485;DHT22;8353;47.856;12.344;2023-12-14T11:55:57;8.70;99.90
16485;DHT22;8353;47.856;12.344;2023-12-14T11:58:44;8.50;99.90
16485;DHT22;8353;47.856;12.344;2023-12-14T12:01:31;8.50;99.90
16485;DHT22;8353;47.856;12.344;2023-12-14T12:04:18;8.40;99.90
16485;DHT22;8353;47.856;12.344;2023-12-14T12:07:07;8.40;99.90
16485;DHT22;8353;47.856;12.344;2023-12-14T12:09:55;8.40;99.90
16485;DHT22;8353;47.856;12.344;2023-12-14T12:12:45;8.40;99.90
16485;DHT22;8353;47.856;12.344;2023-12-14T12:15:32;8.50;99.90
16485;DHT22;8353;47.856;12.344;2023-12-14T12:18:21;8.50;99.90
16485;DHT22;8353;47.856;12.344;2023-12-14T12:21:08;8.50;99.90
16485;DHT22;8353;47.856;12.344;2023-12-14T12:23:54;8.60;99.90
16485;DHT22;8353;47.856;12.344;2023-12-14T12:26:42;8.70;99.90
16485;DHT22;8353;47.856;12.344;2023-12-14T12:29:29;8.80;99.90
16485;DHT22;8353;47.856;12.344;2023-12-14T12:32:16;8.70;99.90
16485;DHT22;8353;47.856;12.344;2023-12-14T12:35:03;8.70;99.90
16485;DHT22;8353;47.856;12.344;2023-12-14T12:37:50;8.70;99.90
16485;DHT22;8353;47.856;12.344;2023-12-14T12:40:39;8.70;99.90
16485;DHT22;8353;47.856;12.344;2023-12-14T12:43:27;8.70;99.90
16485;DHT22;8353;47.856;12.344;2023-12-14T12:46:14;8.60;99.90
16485;DHT22;8353;47.856;12.344;2023-12-14T12:49:02;8.60;99.90
16485;DHT22;8353;47.856;12.344;2023-12-14T12:51:49;8.70;99.90
16485;DHT22;8353;47.856;12.344;2023-12-14T12:54:36;8.70;99.90
16485;DHT22;8353;47.856;12.344;2023-12-14T12:57:23;8.80;99.90
16485;DHT22;8353;47.856;12.344;2023-12-14T13:00:12;8.70;99.90
16485;DHT22;8353;47.856;12.344;2023-12-14T13:02:59;8.70;99.90
16485;DHT22;8353;47.856;12.344;2023-12-14T13:05:46;8.70;99.90
16485;DHT22;8353;47.856;12.344;2023-12-14T13:08:33;8.60;99.90
16485;DHT22;8353;47.856;12.344;2023-12-14T13:11:20;8.60;99.90
16485;DHT22;8353;47.856;12.344;2023-12-14T13:14:07;8.70;99.90
16485;DHT22;8353;47.856;12.344;2023-12-14T13:16:55;8.70;99.90
16485;DHT22;8353;47.856;12.344;2023-12-14T13:19:43;8.60;99.90
16485;DHT22;8353;47.856;12.344;2023-12-14T13:22:30;8.70;99.90
16485;DHT22;8353;47.856;12.344;2023-12-14T13:25:17;8.80;99.90
16485;DHT22;8353;47.856;12.344;2023-12-14T13:28:05;8.70;99.90
16485;DHT22;8353;47.856;12.344;2023-12-14T13:30:52;8.60;99.90
16485;DHT22;8353;47.856;12.344;2023-12-14T13:33:41;8.60;99.90
16485;DHT22;8353;47.856;12.344;2023-12-14T13:36:27;8.60;99.90
16485;DHT22;8353;47.856;12.344;2023-12-14T13:39:15;8.70;99.90
16485;DHT22;8353;47.856;12.344;2023-12-14T13:42:04;8.60;99.90
16485;DHT22;8353;47.856;12.344;2023-12-14T13:44:50;8.50;99.90
16485;DHT22;8353;47.856;12.344;2023-12-14T13:47:37;8.50;99.90
16485;DHT22;8353;47.856;12.344;2023-12-14T13:50:25;8.40;99.90
16485;DHT22;8353;47.856;12.344;2023-12-14T13:53:13;8.40;99.90
16485;DHT22;8353;47.856;12.344;2023-12-14T13:56:00;8.30;99.90
16485;DHT22;8353;47.856;12.344;2023-12-14T13:58:46;8.40;99.90
16485;DHT22;8353;47.856;12.344;2023-12-14T14:01:33;8.40;99.90
16485;DHT22;8353;47.856;12.344;2023-12-14T14:04:20;8.50;99.90
16485;DHT22;8353;47.856;12.344;2023-12-14T14:07:08;8.60;99.90
16485;DHT22;8353;47.856;12.344;2023-12-14T14:09:55;8.60;99.90
16485;DHT22;8353;47.856;12.344;2023-12-14T14:12:44;8.50;99.90
16485;DHT22;8353;47.856;12.344;2023-12-14T14:15:30;8.40;99.90
16485;DHT22;8353;47.856;12.344;2023-12-14T14:18:17;8.40;99.90
16485;DHT22;8353;47.856;12.344;2023-12-14T14:21:04;8.30;99.90
16485;DHT22;8353;47.856;12.344;2023-12-14T14:23:54;8.30;99.90
16485;DHT22;8353;47.856;12.344;2023-12-14T14:26:41;8.30;99.90
16485;DHT22;8353;47.856;12.344;2023-12-14T14:29:28;8.30;99.90
16485;DHT22;8353;47.856;12.344;2023-12-14T14:32:15;8.30;99.90
16485;DHT22;8353;47.856;12.344;2023-12-14T14:35:02;8.40;99.90
16485;DHT22;8353;47.856;12.344;2023-12-14T14:37:48;8.40;99.90
16485;DHT22;8353;47.856;12.344;2023-12-14T14:40:37;8.50;99.90
16485;DHT22;8353;47.856;12.344;2023-12-14T14:43:23;8.50;99.90
16485;DHT22;8353;47.856;12.344;2023-12-14T14:46:10;8.50;99.90
16485;DHT22;8353;47.856;12.344;2023-12-14T14:48:57;8.40;99.90
16485;DHT22;8353;47.856;12.344;2023-12-14T14:51:46;8.40;99.90
16485;DHT22;8353;47.856;12.344;2023-12-14T14:54:33;8.40;99.90
16485;DHT22;8353;47.856;12.344;2023-12-14T14:57:21;8.40;99.90
16485;DHT22;8353;47.856;12.344;2023-12-14T15:00:09;8.40;99.90
16485;DHT22;8353;47.856;12.344;2023-12-14T15:02:56;8.40;99.90
16485;DHT22;8353;47.856;12.344;2023-12-14T15:05:43;8.40;99.90
16485;DHT22;8353;47.856;12.344;2023-12-14T15:08:30;8.30;99.90
16485;DHT22;8353;47.856;12.344;2023-12-14T15:11:17;8.20;99.90
16485;DHT22;8353;47.856;12.344;2023-12-14T15:14:05;8.20;99.90
16485;DHT22;8353;47.856;12.344;2023-12-14T15:16:51;8.10;99.90
16485;DHT22;8353;47.856;12.344;2023-12-14T15:19:38;8.10;99.90
16485;DHT22;8353;47.856;12.344;2023-12-14T15:22:25;8.10;99.90
16485;DHT22;8353;47.856;12.344;2023-12-14T15:25:12;8.10;99.90
16485;DHT22;8353;47.856;12.344;2023-12-14T15:28:00;8.00;99.90
16485;DHT22;8353;47.856;12.344;2023-12-14T15:30:49;7.90;99.90
16485;DHT22;8353;47.856;12.344;2023-12-14T15:33:36;7.90;99.90
16485;DHT22;8353;47.856;12.344;2023-12-14T15:36:22;8.00;99.90
16485;DHT22;8353;47.856;12.344;2023-12-14T15:39:09;7.90;99.90
16485;DHT22;8353;47.856;12.344;2023-12-14T15:41:56;8.00;99.90
16485;DHT22;8353;47.856;12.344;2023-12-14T15:44:43;8.00;99.90
16485;DHT22;8353;47.856;12.344;2023-12-14T15:47:31;8.00;99.90
16485;DHT22;8353;47.856;12.344;2023-12-14T15:50:18;8.10;99.90
16485;DHT22;8353;47.856;12.344;2023-12-14T15:53:05;8.10;99.90
16485;DHT22;8353;47.856;12.344;2023-12-14T15:55:54;8.10;99.90
16485;DHT22;8353;47.856;12.344;2023-12-14T15:58:40;8.10;99.90
16485;DHT22;8353;47.856;12.344;2023-12-14T16:01:27;8.00;99.90
16485;DHT22;8353;47.856;12.344;2023-12-14T16:04:17;8.00;99.90
16485;DHT22;8353;47.856;12.344;2023-12-14T16:07:06;8.00;99.90
16485;DHT22;8353;47.856;12.344;2023-12-14T16:09:56;7.90;99.90
16485;DHT22;8353;47.856;12.344;2023-12-14T16:12:46;8.00;99.90
16485;DHT22;8353;47.856;12.344;2023-12-14T16:15:33;8.00;99.90
16485;DHT22;8353;47.856;12.344;2023-12-14T16:18:19;8.00;99.90
16485;DHT22;8353;47.856;12.344;2023-12-14T16:21:09;7.90;99.90
16485;DHT22;8353;47.856;12.344;2023-12-14T16:23:56;7.90;99.90
16485;DHT22;8353;47.856;12.344;2023-12-14T16:26:42;7.90;99.90
16485;DHT22;8353;47.856;12.344;2023-12-14T16:29:31;7.90;99.90
16485;DHT22;8353;47.856;12.344;2023-12-14T16:32:22;7.90;99.90
16485;DHT22;8353;47.856;12.344;2023-12-14T16:35:10;7.90;99.90
16485;DHT22;8353;47.856;12.344;2023-12-14T16:38:00;7.90;99.90
16485;DHT22;8353;47.856;12.344;2023-12-14T16:40:47;7.90;99.90
16485;DHT22;8353;47.856;12.344;2023-12-14T16:43:34;8.00;99.90
16485;DHT22;8353;47.856;12.344;2023-12-14T16:46:21;8.10;99.90
16485;DHT22;8353;47.856;12.344;2023-12-14T16:49:08;8.10;99.90
16485;DHT22;8353;47.856;12.344;2023-12-14T16:51:55;8.00;99.90
16485;DHT22;8353;47.856;12.344;2023-12-14T16:54:43;8.00;99.90
16485;DHT22;8353;47.856;12.344;2023-12-14T16:57:30;8.10;99.90
16485;DHT22;8353;47.856;12.344;2023-12-14T17:00:17;8.00;99.90
16485;DHT22;8353;47.856;12.344;2023-12-14T17:03:04;8.10;99.90
16485;DHT22;8353;47.856;12.344;2023-12-14T17:05:51;8.10;99.90
16485;DHT22;8353;47.856;12.344;2023-12-14T17:08:38;8.10;99.90
16485;DHT22;8353;47.856;12.344;2023-12-14T17:11:27;8.10;99.90
16485;DHT22;8353;47.856;12.344;2023-12-14T17:14:13;8.10;99.90
16485;DHT22;8353;47.856;12.344;2023-12-14T17:17:03;8.20;99.90
16485;DHT22;8353;47.856;12.344;2023-12-14T17:19:49;8.20;99.90
16485;DHT22;8353;47.856;12.344;2023-12-14T17:22:36;8.10;99.90
16485;DHT22;8353;47.856;12.344;2023-12-14T17:25:23;8.10;99.90
16485;DHT22;8353;47.856;12.344;2023-12-14T17:28:11;8.20;99.90
16485;DHT22;8353;47.856;12.344;2023-12-14T17:30:58;8.20;99.90
16485;DHT22;8353;47.856;12.344;2023-12-14T17:33:45;8.20;99.90
16485;DHT22;8353;47.856;12.344;2023-12-14T17:36:32;8.20;99.90
16485;DHT22;8353;47.856;12.344;2023-12-14T17:39:19;8.20;99.90
16485;DHT22;8353;47.856;12.344;2023-12-14T17:42:06;8.20;99.90
16485;DHT22;8353;47.856;12.344;2023-12-14T17:44:54;8.10;99.90
16485;DHT22;8353;47.856;12.344;2023-12-14T17:47:41;8.10;99.90
16485;DHT22;8353;47.856;12.344;2023-12-14T17:50:28;8.00;99.90
16485;DHT22;8353;47.856;12.344;2023-12-14T17:53:14;8.00;99.90
16485;DHT22;8353;47.856;12.344;2023-12-14T17:56:01;7.90;99.90
16485;DHT22;8353;47.856;12.344;2023-12-14T17:58:48;7.90;99.90